Terminal Aerodrome Forecast
Issued by NWS

Home | Current Version | Previous Version | Text Only | Print | Product List | Glossary On
Versions: 1 2 3 4 5 6 7 8 9 10 11 12 13 14 15 16 17 18 19 20 21 22 23 24 25 26 27 28 29 30 31 32 33 34 35 36 37 38
000
FTUS41 KBOX 051121
TAFHYA
TAF
KHYA 051121Z 0512/0612 35007KT 1SM -SN BR OVC015
      TEMPO 0512/0515 1/2SM SN FG OVC002
     FM051600 35009KT 5SM -SN OVC025
     FM051900 35009KT P6SM OVC040
     FM060000 35006KT P6SM OVC040
     FM060400 36009KT P6SM SCT100=

USA.gov is the U.S. government's official web portal to all federal, state and local government web resources and services.